sensor_id;sensor_type;location;lat;lon;timestamp;pressure;altitude;pressure_sealevel;temperature;humidity
70930;BME280;58588;48.102;19.682;2022-08-25T00:02:38;99604.25;;;19.32;100.00
70930;BME280;58588;48.102;19.682;2022-08-25T00:05:41;99623.25;;;19.39;100.00
70930;BME280;58588;48.102;19.682;2022-08-25T00:08:43;99604.97;;;19.28;100.00
70930;BME280;58588;48.102;19.682;2022-08-25T00:11:46;99598.44;;;19.17;100.00
70930;BME280;58588;48.102;19.682;2022-08-25T00:14:51;99597.47;;;19.23;100.00
70930;BME280;58588;48.102;19.682;2022-08-25T00:17:53;99597.03;;;19.14;100.00
70930;BME280;58588;48.102;19.682;2022-08-25T00:20:55;99601.88;;;19.12;100.00
70930;BME280;58588;48.102;19.682;2022-08-25T00:23:57;99599.16;;;18.77;100.00
70930;BME280;58588;48.102;19.682;2022-08-25T00:27:01;99614.13;;;18.86;100.00
70930;BME280;58588;48.102;19.682;2022-08-25T00:30:06;99606.63;;;18.82;100.00
70930;BME280;58588;48.102;19.682;2022-08-25T00:33:09;99613.44;;;18.91;100.00
70930;BME280;58588;48.102;19.682;2022-08-25T00:36:11;99616.63;;;18.88;100.00
70930;BME280;58588;48.102;19.682;2022-08-25T00:39:13;99595.25;;;18.73;100.00
70930;BME280;58588;48.102;19.682;2022-08-25T00:42:15;99595.84;;;18.75;100.00
70930;BME280;58588;48.102;19.682;2022-08-25T00:45:21;99612.22;;;18.87;100.00
70930;BME280;58588;48.102;19.682;2022-08-25T00:48:24;99585.50;;;18.77;100.00
70930;BME280;58588;48.102;19.682;2022-08-25T00:51:31;99579.00;;;18.78;100.00
70930;BME280;58588;48.102;19.682;2022-08-25T00:54:37;99594.31;;;19.03;100.00
70930;BME280;58588;48.102;19.682;2022-08-25T00:57:42;99586.56;;;18.99;100.00
70930;BME280;58588;48.102;19.682;2022-08-25T01:00:48;99600.22;;;18.99;100.00
70930;BME280;58588;48.102;19.682;2022-08-25T01:03:52;99599.53;;;19.04;100.00
70930;BME280;58588;48.102;19.682;2022-08-25T01:06:55;99599.28;;;18.94;100.00
70930;BME280;58588;48.102;19.682;2022-08-25T01:09:58;99597.97;;;18.85;100.00
70930;BME280;58588;48.102;19.682;2022-08-25T01:13:05;99600.72;;;18.96;100.00
70930;BME280;58588;48.102;19.682;2022-08-25T01:16:12;99583.25;;;18.86;100.00
70930;BME280;58588;48.102;19.682;2022-08-25T01:19:14;99601.88;;;18.77;100.00
70930;BME280;58588;48.102;19.682;2022-08-25T01:22:18;99603.03;;;18.58;100.00
70930;BME280;58588;48.102;19.682;2022-08-25T01:25:34;99608.03;;;18.61;100.00
70930;BME280;58588;48.102;19.682;2022-08-25T01:28:42;99584.63;;;18.41;100.00
70930;BME280;58588;48.102;19.682;2022-08-25T01:32:00;99586.72;;;18.39;100.00
70930;BME280;58588;48.102;19.682;2022-08-25T01:35:04;99602.06;;;18.52;100.00
70930;BME280;58588;48.102;19.682;2022-08-25T01:38:08;99611.59;;;18.61;100.00
70930;BME280;58588;48.102;19.682;2022-08-25T01:41:10;99607.47;;;18.70;100.00
70930;BME280;58588;48.102;19.682;2022-08-25T01:44:14;99610.88;;;18.66;100.00
70930;BME280;58588;48.102;19.682;2022-08-25T01:47:16;99591.66;;;18.61;100.00
70930;BME280;58588;48.102;19.682;2022-08-25T01:50:19;99603.31;;;18.68;100.00
70930;BME280;58588;48.102;19.682;2022-08-25T01:53:26;99583.91;;;18.58;100.00
70930;BME280;58588;48.102;19.682;2022-08-25T01:56:29;99598.06;;;18.66;100.00
70930;BME280;58588;48.102;19.682;2022-08-25T01:59:31;99583.44;;;18.61;100.00
70930;BME280;58588;48.102;19.682;2022-08-25T02:02:33;99586.78;;;18.63;100.00
70930;BME280;58588;48.102;19.682;2022-08-25T02:05:35;99599.16;;;18.77;100.00
70930;BME280;58588;48.102;19.682;2022-08-25T02:08:39;99598.94;;;18.79;100.00
70930;BME280;58588;48.102;19.682;2022-08-25T02:11:42;99597.84;;;18.68;100.00
70930;BME280;58588;48.102;19.682;2022-08-25T02:14:45;99589.78;;;18.73;100.00
70930;BME280;58588;48.102;19.682;2022-08-25T02:17:47;99594.75;;;18.76;100.00
70930;BME280;58588;48.102;19.682;2022-08-25T02:20:49;99589.16;;;18.71;100.00
70930;BME280;58588;48.102;19.682;2022-08-25T02:23:53;99578.94;;;18.66;100.00
70930;BME280;58588;48.102;19.682;2022-08-25T02:26:56;99564.22;;;18.56;100.00
70930;BME280;58588;48.102;19.682;2022-08-25T02:29:58;99584.41;;;18.66;100.00
70930;BME280;58588;48.102;19.682;2022-08-25T02:33:00;99582.84;;;18.59;100.00
70930;BME280;58588;48.102;19.682;2022-08-25T02:36:04;99592.59;;;18.66;100.00
70930;BME280;58588;48.102;19.682;2022-08-25T02:39:09;99579.06;;;18.60;100.00
70930;BME280;58588;48.102;19.682;2022-08-25T02:42:11;99591.97;;;18.64;100.00
70930;BME280;58588;48.102;19.682;2022-08-25T02:45:14;99591.25;;;18.45;100.00
70930;BME280;58588;48.102;19.682;2022-08-25T02:48:16;99605.63;;;18.53;100.00
70930;BME280;58588;48.102;19.682;2022-08-25T02:51:18;99595.31;;;18.55;100.00
70930;BME280;58588;48.102;19.682;2022-08-25T02:54:22;99604.34;;;18.55;100.00
70930;BME280;58588;48.102;19.682;2022-08-25T02:57:25;99600.53;;;18.56;100.00
70930;BME280;58588;48.102;19.682;2022-08-25T03:00:27;99599.22;;;18.59;100.00
70930;BME280;58588;48.102;19.682;2022-08-25T03:03:29;99584.75;;;18.58;100.00
70930;BME280;58588;48.102;19.682;2022-08-25T03:06:31;99595.78;;;18.52;100.00
70930;BME280;58588;48.102;19.682;2022-08-25T03:09:34;99572.75;;;18.36;100.00
70930;BME280;58588;48.102;19.682;2022-08-25T03:12:36;99576.44;;;18.41;100.00
70930;BME280;58588;48.102;19.682;2022-08-25T03:15:40;99560.06;;;18.41;100.00
70930;BME280;58588;48.102;19.682;2022-08-25T03:18:42;99571.91;;;18.35;100.00
70930;BME280;58588;48.102;19.682;2022-08-25T03:21:44;99587.09;;;18.43;100.00
70930;BME280;58588;48.102;19.682;2022-08-25T03:24:48;99577.72;;;18.39;100.00
70930;BME280;58588;48.102;19.682;2022-08-25T03:27:50;99567.97;;;18.31;100.00
70930;BME280;58588;48.102;19.682;2022-08-25T03:30:51;99587.44;;;18.46;100.00
70930;BME280;58588;48.102;19.682;2022-08-25T03:33:53;99568.13;;;18.48;100.00
70930;BME280;58588;48.102;19.682;2022-08-25T03:36:56;99569.16;;;18.47;100.00
70930;BME280;58588;48.102;19.682;2022-08-25T03:40:01;99564.09;;;18.51;100.00
70930;BME280;58588;48.102;19.682;2022-08-25T03:43:03;99582.47;;;18.43;100.00
70930;BME280;58588;48.102;19.682;2022-08-25T03:46:05;99553.38;;;18.26;100.00
70930;BME280;58588;48.102;19.682;2022-08-25T03:49:08;99570.47;;;18.33;100.00
70930;BME280;58588;48.102;19.682;2022-08-25T03:52:10;99572.72;;;18.24;100.00
70930;BME280;58588;48.102;19.682;2022-08-25T03:55:14;99571.38;;;18.15;100.00
70930;BME280;58588;48.102;19.682;2022-08-25T03:58:18;99573.03;;;18.16;100.00
70930;BME280;58588;48.102;19.682;2022-08-25T04:01:20;99573.50;;;18.13;100.00
70930;BME280;58588;48.102;19.682;2022-08-25T04:04:22;99571.81;;;18.00;100.00
70930;BME280;58588;48.102;19.682;2022-08-25T04:07:24;99578.00;;;18.07;100.00
70930;BME280;58588;48.102;19.682;2022-08-25T04:10:28;99566.16;;;18.13;100.00
70930;BME280;58588;48.102;19.682;2022-08-25T04:13:30;99563.19;;;18.15;100.00
70930;BME280;58588;48.102;19.682;2022-08-25T04:16:33;99574.63;;;18.24;100.00
70930;BME280;58588;48.102;19.682;2022-08-25T04:19:35;99579.59;;;18.27;100.00
70930;BME280;58588;48.102;19.682;2022-08-25T04:22:37;99579.22;;;18.23;100.00
70930;BME280;58588;48.102;19.682;2022-08-25T04:25:41;99570.47;;;17.91;100.00
70930;BME280;58588;48.102;19.682;2022-08-25T04:28:43;99568.41;;;18.16;100.00
70930;BME280;58588;48.102;19.682;2022-08-25T04:31:46;99563.09;;;18.22;100.00
70930;BME280;58588;48.102;19.682;2022-08-25T04:34:49;99557.38;;;18.23;100.00
70930;BME280;58588;48.102;19.682;2022-08-25T04:37:51;99564.03;;;18.27;100.00
70930;BME280;58588;48.102;19.682;2022-08-25T04:40:59;99582.59;;;18.37;100.00
70930;BME280;58588;48.102;19.682;2022-08-25T04:44:02;99584.13;;;18.33;100.00
70930;BME280;58588;48.102;19.682;2022-08-25T04:47:04;99560.25;;;18.28;100.00
70930;BME280;58588;48.102;19.682;2022-08-25T04:50:07;99561.44;;;18.32;100.00
70930;BME280;58588;48.102;19.682;2022-08-25T04:53:09;99560.41;;;18.45;100.00
70930;BME280;58588;48.102;19.682;2022-08-25T04:56:14;99551.88;;;18.41;100.00
70930;BME280;58588;48.102;19.682;2022-08-25T04:59:17;99570.03;;;18.59;100.00
70930;BME280;58588;48.102;19.682;2022-08-25T05:02:19;99564.78;;;18.58;100.00
70930;BME280;58588;48.102;19.682;2022-08-25T05:05:21;99559.22;;;18.64;100.00
70930;BME280;58588;48.102;19.682;2022-08-25T05:08:24;99553.16;;;18.62;100.00
70930;BME280;58588;48.102;19.682;2022-08-25T05:11:27;99575.06;;;18.74;100.00
70930;BME280;58588;48.102;19.682;2022-08-25T05:14:30;99564.38;;;18.84;100.00
70930;BME280;58588;48.102;19.682;2022-08-25T05:17:32;99554.59;;;18.65;100.00
70930;BME280;58588;48.102;19.682;2022-08-25T05:20:35;99548.44;;;18.69;100.00
70930;BME280;58588;48.102;19.682;2022-08-25T05:23:39;99564.50;;;18.78;100.00
70930;BME280;58588;48.102;19.682;2022-08-25T05:26:42;99578.88;;;18.73;100.00
70930;BME280;58588;48.102;19.682;2022-08-25T05:29:44;99573.97;;;18.75;100.00
70930;BME280;58588;48.102;19.682;2022-08-25T05:32:46;99576.72;;;18.87;100.00
70930;BME280;58588;48.102;19.682;2022-08-25T05:35:50;99581.59;;;18.85;100.00
70930;BME280;58588;48.102;19.682;2022-08-25T05:38:54;99557.13;;;18.90;100.00
70930;BME280;58588;48.102;19.682;2022-08-25T05:41:58;99548.44;;;19.05;100.00
70930;BME280;58588;48.102;19.682;2022-08-25T05:45:00;99558.41;;;18.99;100.00
70930;BME280;58588;48.102;19.682;2022-08-25T05:48:02;99572.63;;;19.24;100.00
70930;BME280;58588;48.102;19.682;2022-08-25T05:51:06;99563.34;;;19.37;100.00
70930;BME280;58588;48.102;19.682;2022-08-25T05:54:09;99551.66;;;19.42;100.00
70930;BME280;58588;48.102;19.682;2022-08-25T05:57:15;99563.19;;;19.67;100.00
70930;BME280;58588;48.102;19.682;2022-08-25T06:00:17;99557.81;;;19.61;100.00
70930;BME280;58588;48.102;19.682;2022-08-25T06:03:19;99561.88;;;19.46;100.00
70930;BME280;58588;48.102;19.682;2022-08-25T06:06:21;99562.09;;;19.68;100.00
70930;BME280;58588;48.102;19.682;2022-08-25T06:09:23;99565.38;;;19.82;100.00
70930;BME280;58588;48.102;19.682;2022-08-25T06:12:27;99567.41;;;19.75;100.00
70930;BME280;58588;48.102;19.682;2022-08-25T06:15:30;99562.53;;;19.77;100.00
70930;BME280;58588;48.102;19.682;2022-08-25T06:18:33;99558.66;;;19.90;100.00
70930;BME280;58588;48.102;19.682;2022-08-25T06:21:35;99552.41;;;20.06;100.00
70930;BME280;58588;48.102;19.682;2022-08-25T06:24:38;99578.97;;;20.22;100.00
70930;BME280;58588;48.102;19.682;2022-08-25T06:27:41;99580.81;;;20.34;100.00
70930;BME280;58588;48.102;19.682;2022-08-25T06:30:44;99574.03;;;20.53;100.00
70930;BME280;58588;48.102;19.682;2022-08-25T06:33:46;99557.78;;;20.63;100.00
70930;BME280;58588;48.102;19.682;2022-08-25T06:36:48;99566.94;;;20.91;100.00
70930;BME280;58588;48.102;19.682;2022-08-25T06:39:51;99565.00;;;21.08;100.00
70930;BME280;58588;48.102;19.682;2022-08-25T06:42:55;99574.06;;;21.08;100.00
70930;BME280;58588;48.102;19.682;2022-08-25T06:45:57;99580.91;;;21.28;100.00
70930;BME280;58588;48.102;19.682;2022-08-25T06:48:59;99560.31;;;21.25;100.00
70930;BME280;58588;48.102;19.682;2022-08-25T06:52:01;99573.03;;;21.31;100.00
70930;BME280;58588;48.102;19.682;2022-08-25T06:55:03;99551.56;;;21.28;100.00
70930;BME280;58588;48.102;19.682;2022-08-25T06:58:07;99575.41;;;21.45;100.00
70930;BME280;58588;48.102;19.682;2022-08-25T07:01:12;99579.03;;;21.72;100.00
70930;BME280;58588;48.102;19.682;2022-08-25T07:04:14;99559.91;;;21.82;100.00
70930;BME280;58588;48.102;19.682;2022-08-25T07:07:16;99565.72;;;21.86;100.00
70930;BME280;58588;48.102;19.682;2022-08-25T07:10:18;99579.53;;;22.18;100.00
70930;BME280;58588;48.102;19.682;2022-08-25T07:13:22;99552.00;;;22.13;100.00
70930;BME280;58588;48.102;19.682;2022-08-25T07:16:24;99568.38;;;22.30;100.00
70930;BME280;58588;48.102;19.682;2022-08-25T07:19:26;99570.66;;;22.38;100.00
70930;BME280;58588;48.102;19.682;2022-08-25T07:22:28;99573.25;;;22.55;100.00
70930;BME280;58588;48.102;19.682;2022-08-25T07:25:30;99548.63;;;22.65;100.00
70930;BME280;58588;48.102;19.682;2022-08-25T07:28:35;99566.78;;;23.03;100.00
70930;BME280;58588;48.102;19.682;2022-08-25T07:31:38;99573.53;;;23.28;100.00
70930;BME280;58588;48.102;19.682;2022-08-25T07:34:40;99574.88;;;23.25;100.00
70930;BME280;58588;48.102;19.682;2022-08-25T07:37:59;99572.22;;;23.40;100.00
70930;BME280;58588;48.102;19.682;2022-08-25T07:41:02;99559.94;;;23.68;100.00
70930;BME280;58588;48.102;19.682;2022-08-25T07:44:08;99552.47;;;23.59;100.00
70930;BME280;58588;48.102;19.682;2022-08-25T07:47:10;99561.66;;;23.90;100.00
70930;BME280;58588;48.102;19.682;2022-08-25T07:50:15;99556.72;;;23.92;100.00
70930;BME280;58588;48.102;19.682;2022-08-25T07:53:17;99556.75;;;24.07;100.00
70930;BME280;58588;48.102;19.682;2022-08-25T07:56:19;99532.28;;;24.36;100.00
70930;BME280;58588;48.102;19.682;2022-08-25T07:59:22;99529.22;;;24.73;100.00
70930;BME280;58588;48.102;19.682;2022-08-25T08:02:25;99542.97;;;24.89;100.00
70930;BME280;58588;48.102;19.682;2022-08-25T08:05:27;99537.97;;;25.01;100.00
70930;BME280;58588;48.102;19.682;2022-08-25T08:08:29;99529.97;;;25.15;100.00
70930;BME280;58588;48.102;19.682;2022-08-25T08:11:33;99533.28;;;25.17;100.00
70930;BME280;58588;48.102;19.682;2022-08-25T08:14:41;99541.69;;;25.56;100.00
70930;BME280;58588;48.102;19.682;2022-08-25T08:17:43;99537.19;;;25.70;100.00
70930;BME280;58588;48.102;19.682;2022-08-25T08:20:47;99536.91;;;25.72;100.00
70930;BME280;58588;48.102;19.682;2022-08-25T08:23:49;99527.19;;;25.84;100.00
70930;BME280;58588;48.102;19.682;2022-08-25T08:26:52;99543.31;;;26.11;100.00
70930;BME280;58588;48.102;19.682;2022-08-25T08:29:55;99519.94;;;25.99;100.00
70930;BME280;58588;48.102;19.682;2022-08-25T08:32:58;99527.19;;;26.24;100.00
70930;BME280;58588;48.102;19.682;2022-08-25T08:36:02;99527.00;;;26.49;100.00
70930;BME280;58588;48.102;19.682;2022-08-25T08:39:05;99525.28;;;26.58;100.00
70930;BME280;58588;48.102;19.682;2022-08-25T08:42:18;99517.94;;;26.73;100.00
70930;BME280;58588;48.102;19.682;2022-08-25T08:45:29;99521.25;;;26.99;100.00
70930;BME280;58588;48.102;19.682;2022-08-25T08:48:50;99501.25;;;27.12;100.00
70930;BME280;58588;48.102;19.682;2022-08-25T08:52:00;99506.22;;;27.34;100.00
70930;BME280;58588;48.102;19.682;2022-08-25T08:55:06;99516.59;;;27.47;100.00
70930;BME280;58588;48.102;19.682;2022-08-25T08:58:15;99514.69;;;27.85;100.00
70930;BME280;58588;48.102;19.682;2022-08-25T09:01:28;99504.47;;;27.62;96.98
70930;BME280;58588;48.102;19.682;2022-08-25T09:04:35;99503.81;;;27.70;92.42
70930;BME280;58588;48.102;19.682;2022-08-25T09:07:43;99506.59;;;27.70;100.00
70930;BME280;58588;48.102;19.682;2022-08-25T09:11:00;99505.91;;;27.97;98.60
70930;BME280;58588;48.102;19.682;2022-08-25T09:14:12;99502.16;;;28.07;99.90
70930;BME280;58588;48.102;19.682;2022-08-25T09:17:28;99493.72;;;28.31;95.17
70930;BME280;58588;48.102;19.682;2022-08-25T09:20:51;99474.72;;;28.57;89.89
70930;BME280;58588;48.102;19.682;2022-08-25T09:24:08;99476.53;;;28.34;93.32
70930;BME280;58588;48.102;19.682;2022-08-25T09:27:22;99477.94;;;28.64;92.34
70930;BME280;58588;48.102;19.682;2022-08-25T09:30:30;99493.00;;;29.04;93.03
70930;BME280;58588;48.102;19.682;2022-08-25T09:33:35;99482.06;;;29.49;87.30
70930;BME280;58588;48.102;19.682;2022-08-25T09:36:37;99466.13;;;29.54;84.68
70930;BME280;58588;48.102;19.682;2022-08-25T09:39:39;99469.72;;;29.55;93.06
70930;BME280;58588;48.102;19.682;2022-08-25T09:42:45;99459.50;;;29.50;83.88
70930;BME280;58588;48.102;19.682;2022-08-25T09:45:54;99460.56;;;29.41;86.52
70930;BME280;58588;48.102;19.682;2022-08-25T09:49:10;99455.22;;;29.80;91.13
70930;BME280;58588;48.102;19.682;2022-08-25T09:52:31;99470.38;;;30.10;85.44
70930;BME280;58588;48.102;19.682;2022-08-25T09:55:34;99454.22;;;30.13;79.04
70930;BME280;58588;48.102;19.682;2022-08-25T09:58:38;99437.91;;;30.20;80.17
70930;BME280;58588;48.102;19.682;2022-08-25T10:01:47;99442.16;;;30.48;78.13
70930;BME280;58588;48.102;19.682;2022-08-25T10:04:51;99438.09;;;30.54;77.35
70930;BME280;58588;48.102;19.682;2022-08-25T10:07:55;99428.84;;;30.68;76.83
70930;BME280;58588;48.102;19.682;2022-08-25T10:10:59;99415.72;;;30.99;77.86
70930;BME280;58588;48.102;19.682;2022-08-25T10:14:14;99422.28;;;31.03;74.58
70930;BME280;58588;48.102;19.682;2022-08-25T10:17:23;99423.63;;;31.14;78.15
70930;BME280;58588;48.102;19.682;2022-08-25T10:20:27;99411.53;;;31.28;75.73
70930;BME280;58588;48.102;19.682;2022-08-25T10:23:31;99398.38;;;31.02;71.84
70930;BME280;58588;48.102;19.682;2022-08-25T10:26:44;99405.28;;;31.13;74.63
70930;BME280;58588;48.102;19.682;2022-08-25T10:30:11;99406.81;;;31.46;69.01
70930;BME280;58588;48.102;19.682;2022-08-25T10:33:19;99406.78;;;31.28;73.83
70930;BME280;58588;48.102;19.682;2022-08-25T10:36:34;99403.13;;;31.02;70.87
70930;BME280;58588;48.102;19.682;2022-08-25T10:39:42;99407.78;;;31.32;74.70
70930;BME280;58588;48.102;19.682;2022-08-25T10:42:56;99395.00;;;31.75;71.09
70930;BME280;58588;48.102;19.682;2022-08-25T10:46:13;99396.00;;;32.05;68.40
70930;BME280;58588;48.102;19.682;2022-08-25T10:49:18;99384.97;;;32.17;64.46
70930;BME280;58588;48.102;19.682;2022-08-25T10:52:28;99383.78;;;32.35;61.17
70930;BME280;58588;48.102;19.682;2022-08-25T10:55:40;99397.75;;;32.18;62.60
70930;BME280;58588;48.102;19.682;2022-08-25T10:58:58;99363.03;;;31.72;63.02
70930;BME280;58588;48.102;19.682;2022-08-25T11:02:36;99384.03;;;31.87;69.55
70930;BME280;58588;48.102;19.682;2022-08-25T11:05:49;99363.69;;;32.50;65.88
70930;BME280;58588;48.102;19.682;2022-08-25T11:08:56;99358.31;;;32.45;59.69
70930;BME280;58588;48.102;19.682;2022-08-25T11:12:04;99356.16;;;32.89;58.73
70930;BME280;58588;48.102;19.682;2022-08-25T11:15:12;99354.19;;;33.11;61.60
70930;BME280;58588;48.102;19.682;2022-08-25T11:18:19;99350.03;;;33.38;58.18
70930;BME280;58588;48.102;19.682;2022-08-25T11:21:26;99342.16;;;33.61;55.95
70930;BME280;58588;48.102;19.682;2022-08-25T11:24:41;99335.13;;;33.54;53.16
70930;BME280;58588;48.102;19.682;2022-08-25T11:27:54;99328.09;;;33.07;56.11
70930;BME280;58588;48.102;19.682;2022-08-25T11:30:59;99330.06;;;33.27;51.47
70930;BME280;58588;48.102;19.682;2022-08-25T11:34:03;99315.53;;;33.34;53.26
70930;BME280;58588;48.102;19.682;2022-08-25T11:37:14;99327.97;;;33.66;53.56
70930;BME280;58588;48.102;19.682;2022-08-25T11:40:40;99316.56;;;33.71;52.03
70930;BME280;58588;48.102;19.682;2022-08-25T11:43:54;99319.97;;;34.22;54.23
70930;BME280;58588;48.102;19.682;2022-08-25T11:47:16;99304.03;;;34.47;51.09
70930;BME280;58588;48.102;19.682;2022-08-25T11:50:27;99309.28;;;34.48;52.92
70930;BME280;58588;48.102;19.682;2022-08-25T11:53:32;99303.06;;;34.30;50.37
70930;BME280;58588;48.102;19.682;2022-08-25T11:56:38;99306.16;;;33.92;50.21
70930;BME280;58588;48.102;19.682;2022-08-25T12:00:09;99301.31;;;33.80;53.11
70930;BME280;58588;48.102;19.682;2022-08-25T12:03:51;99302.13;;;34.26;50.14
70930;BME280;58588;48.102;19.682;2022-08-25T12:10:53;99285.81;;;34.28;46.13
70930;BME280;58588;48.102;19.682;2022-08-25T12:14:07;99285.00;;;34.28;52.94
70930;BME280;58588;48.102;19.682;2022-08-25T12:17:21;99284.06;;;34.36;50.29
70930;BME280;58588;48.102;19.682;2022-08-25T12:24:19;99276.50;;;34.73;49.28
70930;BME280;58588;48.102;19.682;2022-08-25T12:27:27;99272.25;;;34.18;48.41
70930;BME280;58588;48.102;19.682;2022-08-25T12:30:40;99270.38;;;33.65;50.85
70930;BME280;58588;48.102;19.682;2022-08-25T12:33:56;99277.16;;;34.09;49.11
70930;BME280;58588;48.102;19.682;2022-08-25T12:37:10;99261.44;;;34.66;48.12
70930;BME280;58588;48.102;19.682;2022-08-25T12:40:22;99270.19;;;34.64;49.07
70930;BME280;58588;48.102;19.682;2022-08-25T12:43:27;99272.75;;;34.94;51.64
70930;BME280;58588;48.102;19.682;2022-08-25T12:46:37;99253.16;;;34.57;48.36
70930;BME280;58588;48.102;19.682;2022-08-25T12:49:39;99259.56;;;34.70;46.17
70930;BME280;58588;48.102;19.682;2022-08-25T12:52:42;99256.13;;;34.88;48.67
70930;BME280;58588;48.102;19.682;2022-08-25T12:55:48;99261.97;;;34.83;49.15
70930;BME280;58588;48.102;19.682;2022-08-25T12:59:09;99249.06;;;34.79;49.13
70930;BME280;58588;48.102;19.682;2022-08-25T13:02:48;99242.25;;;34.92;45.76
70930;BME280;58588;48.102;19.682;2022-08-25T13:06:20;99237.03;;;34.66;47.88
70930;BME280;58588;48.102;19.682;2022-08-25T13:13:22;99231.94;;;35.08;47.61
70930;BME280;58588;48.102;19.682;2022-08-25T13:16:29;99225.88;;;35.06;46.54
70930;BME280;58588;48.102;19.682;2022-08-25T13:19:35;99225.16;;;34.57;48.85
70930;BME280;58588;48.102;19.682;2022-08-25T13:22:37;99236.63;;;35.04;46.37
70930;BME280;58588;48.102;19.682;2022-08-25T13:25:46;99237.47;;;35.33;44.90
70930;BME280;58588;48.102;19.682;2022-08-25T13:28:50;99243.22;;;35.24;44.09
70930;BME280;58588;48.102;19.682;2022-08-25T13:31:57;99231.34;;;35.15;43.93
70930;BME280;58588;48.102;19.682;2022-08-25T13:35:15;99216.97;;;35.17;43.08
70930;BME280;58588;48.102;19.682;2022-08-25T13:38:18;99211.38;;;35.60;41.51
70930;BME280;58588;48.102;19.682;2022-08-25T13:41:22;99215.19;;;35.68;43.21
70930;BME280;58588;48.102;19.682;2022-08-25T13:44:26;99222.66;;;35.92;41.09
70930;BME280;58588;48.102;19.682;2022-08-25T13:47:34;99224.84;;;36.14;46.13
70930;BME280;58588;48.102;19.682;2022-08-25T13:50:40;99219.84;;;36.08;40.51
70930;BME280;58588;48.102;19.682;2022-08-25T13:53:48;99221.56;;;35.81;40.72
70930;BME280;58588;48.102;19.682;2022-08-25T13:56:50;99234.03;;;35.83;42.41
70930;BME280;58588;48.102;19.682;2022-08-25T13:59:55;99217.78;;;36.05;42.73
70930;BME280;58588;48.102;19.682;2022-08-25T14:03:01;99206.75;;;36.12;45.28
70930;BME280;58588;48.102;19.682;2022-08-25T14:06:08;99200.41;;;35.99;42.14
70930;BME280;58588;48.102;19.682;2022-08-25T14:09:15;99203.66;;;36.01;44.31
70930;BME280;58588;48.102;19.682;2022-08-25T14:12:33;99201.28;;;36.35;43.29
70930;BME280;58588;48.102;19.682;2022-08-25T14:15:36;99207.81;;;36.07;42.16
70930;BME280;58588;48.102;19.682;2022-08-25T14:18:38;99184.84;;;36.37;42.60
70930;BME280;58588;48.102;19.682;2022-08-25T14:21:41;99185.44;;;36.42;41.63
70930;BME280;58588;48.102;19.682;2022-08-25T14:24:43;99196.16;;;36.56;42.67
70930;BME280;58588;48.102;19.682;2022-08-25T14:27:53;99186.69;;;36.64;41.27
70930;BME280;58588;48.102;19.682;2022-08-25T14:30:58;99190.16;;;36.58;41.21
70930;BME280;58588;48.102;19.682;2022-08-25T14:34:02;99188.38;;;36.34;40.29
70930;BME280;58588;48.102;19.682;2022-08-25T14:37:13;99188.75;;;36.48;41.75
70930;BME280;58588;48.102;19.682;2022-08-25T14:40:17;99168.53;;;36.07;44.28
70930;BME280;58588;48.102;19.682;2022-08-25T14:43:19;99180.53;;;36.24;41.79
70930;BME280;58588;48.102;19.682;2022-08-25T14:46:24;99194.59;;;36.24;43.04
70930;BME280;58588;48.102;19.682;2022-08-25T14:49:28;99189.56;;;36.33;41.33
70930;BME280;58588;48.102;19.682;2022-08-25T14:52:34;99190.31;;;36.30;42.81
70930;BME280;58588;48.102;19.682;2022-08-25T14:55:36;99187.16;;;36.15;43.21
70930;BME280;58588;48.102;19.682;2022-08-25T14:58:39;99186.50;;;36.22;41.44
70930;BME280;58588;48.102;19.682;2022-08-25T15:01:41;99179.75;;;35.91;41.81
70930;BME280;58588;48.102;19.682;2022-08-25T15:04:44;99179.09;;;35.98;42.51
70930;BME280;58588;48.102;19.682;2022-08-25T15:08:06;99188.63;;;36.60;41.62
70930;BME280;58588;48.102;19.682;2022-08-25T15:11:27;99187.47;;;37.00;41.96
70930;BME280;58588;48.102;19.682;2022-08-25T15:14:29;99190.53;;;36.91;40.39
70930;BME280;58588;48.102;19.682;2022-08-25T15:17:31;99182.69;;;36.46;40.91
70930;BME280;58588;48.102;19.682;2022-08-25T15:20:33;99185.63;;;36.88;41.12
70930;BME280;58588;48.102;19.682;2022-08-25T15:23:37;99189.41;;;37.15;40.22
70930;BME280;58588;48.102;19.682;2022-08-25T15:26:41;99186.44;;;37.47;39.63
70930;BME280;58588;48.102;19.682;2022-08-25T15:29:44;99171.13;;;37.25;40.06
70930;BME280;58588;48.102;19.682;2022-08-25T15:32:46;99180.47;;;36.90;42.21
70930;BME280;58588;48.102;19.682;2022-08-25T15:35:48;99174.25;;;37.01;43.45
70930;BME280;58588;48.102;19.682;2022-08-25T15:38:52;99172.03;;;36.90;45.14
70930;BME280;58588;48.102;19.682;2022-08-25T15:41:54;99169.44;;;37.63;41.16
70930;BME280;58588;48.102;19.682;2022-08-25T15:44:56;99155.19;;;37.33;39.73
70930;BME280;58588;48.102;19.682;2022-08-25T15:47:58;99156.06;;;37.56;39.76
70930;BME280;58588;48.102;19.682;2022-08-25T15:51:00;99169.47;;;37.86;39.73
70930;BME280;58588;48.102;19.682;2022-08-25T15:54:03;99163.94;;;37.93;42.91
70930;BME280;58588;48.102;19.682;2022-08-25T15:57:05;99157.34;;;38.08;38.37
70930;BME280;58588;48.102;19.682;2022-08-25T16:00:09;99162.69;;;37.90;40.66
70930;BME280;58588;48.102;19.682;2022-08-25T16:03:12;99136.00;;;37.81;41.28
70930;BME280;58588;48.102;19.682;2022-08-25T16:06:14;99145.81;;;37.67;42.99
70930;BME280;58588;48.102;19.682;2022-08-25T16:09:18;99143.13;;;37.32;42.39
70930;BME280;58588;48.102;19.682;2022-08-25T16:12:20;99146.13;;;37.39;46.25
70930;BME280;58588;48.102;19.682;2022-08-25T16:15:22;99152.56;;;37.20;47.08
70930;BME280;58588;48.102;19.682;2022-08-25T16:18:24;99137.53;;;36.74;43.35